sensor_id;sensor_type;location;lat;lon;timestamp;P1;durP1;ratioP1;P2;durP2;ratioP2
59127;SDS011;44912;52.754;5.994;2023-12-28T00:00:26;6.97;;;3.13;;
59127;SDS011;44912;52.754;5.994;2023-12-28T00:02:52;7.47;;;3.30;;
59127;SDS011;44912;52.754;5.994;2023-12-28T00:05:17;7.38;;;3.50;;
59127;SDS011;44912;52.754;5.994;2023-12-28T00:07:43;9.30;;;3.38;;
59127;SDS011;44912;52.754;5.994;2023-12-28T00:10:09;9.10;;;3.30;;
59127;SDS011;44912;52.754;5.994;2023-12-28T00:12:35;7.85;;;3.03;;
59127;SDS011;44912;52.754;5.994;2023-12-28T00:15:00;8.52;;;3.15;;
59127;SDS011;44912;52.754;5.994;2023-12-28T00:17:26;6.50;;;3.10;;
59127;SDS011;44912;52.754;5.994;2023-12-28T00:19:52;9.43;;;3.45;;
59127;SDS011;44912;52.754;5.994;2023-12-28T00:22:17;7.65;;;3.20;;
59127;SDS011;44912;52.754;5.994;2023-12-28T00:24:43;7.28;;;3.13;;
59127;SDS011;44912;52.754;5.994;2023-12-28T00:27:08;7.90;;;3.22;;
59127;SDS011;44912;52.754;5.994;2023-12-28T00:29:34;10.63;;;3.17;;
59127;SDS011;44912;52.754;5.994;2023-12-28T00:32:03;7.70;;;3.33;;
59127;SDS011;44912;52.754;5.994;2023-12-28T00:34:32;6.78;;;3.13;;
59127;SDS011;44912;52.754;5.994;2023-12-28T00:36:58;11.02;;;3.83;;
59127;SDS011;44912;52.754;5.994;2023-12-28T00:39:23;8.77;;;2.78;;
59127;SDS011;44912;52.754;5.994;2023-12-28T00:41:49;9.85;;;3.33;;
59127;SDS011;44912;52.754;5.994;2023-12-28T00:44:15;11.63;;;3.10;;
59127;SDS011;44912;52.754;5.994;2023-12-28T00:46:40;9.38;;;3.50;;
59127;SDS011;44912;52.754;5.994;2023-12-28T00:49:07;6.50;;;2.72;;
59127;SDS011;44912;52.754;5.994;2023-12-28T00:51:33;10.10;;;2.95;;
59127;SDS011;44912;52.754;5.994;2023-12-28T00:53:59;11.15;;;3.00;;
59127;SDS011;44912;52.754;5.994;2023-12-28T00:56:25;6.63;;;2.90;;
59127;SDS011;44912;52.754;5.994;2023-12-28T00:58:50;9.15;;;4.03;;
59127;SDS011;44912;52.754;5.994;2023-12-28T01:01:16;9.02;;;3.00;;
59127;SDS011;44912;52.754;5.994;2023-12-28T01:03:42;10.00;;;3.25;;
59127;SDS011;44912;52.754;5.994;2023-12-28T01:06:07;9.98;;;3.03;;
59127;SDS011;44912;52.754;5.994;2023-12-28T01:08:33;9.88;;;3.20;;
59127;SDS011;44912;52.754;5.994;2023-12-28T01:10:59;9.10;;;2.90;;
59127;SDS011;44912;52.754;5.994;2023-12-28T01:13:25;8.77;;;3.22;;
59127;SDS011;44912;52.754;5.994;2023-12-28T01:15:52;9.73;;;3.33;;
59127;SDS011;44912;52.754;5.994;2023-12-28T01:18:17;12.45;;;3.30;;
59127;SDS011;44912;52.754;5.994;2023-12-28T01:20:43;12.30;;;3.20;;
59127;SDS011;44912;52.754;5.994;2023-12-28T01:23:09;8.65;;;2.60;;
59127;SDS011;44912;52.754;5.994;2023-12-28T01:25:34;9.13;;;2.78;;
59127;SDS011;44912;52.754;5.994;2023-12-28T01:28:00;10.48;;;2.90;;
59127;SDS011;44912;52.754;5.994;2023-12-28T01:30:26;9.70;;;3.15;;
59127;SDS011;44912;52.754;5.994;2023-12-28T01:32:52;9.68;;;2.80;;
59127;SDS011;44912;52.754;5.994;2023-12-28T01:35:17;11.30;;;3.42;;
59127;SDS011;44912;52.754;5.994;2023-12-28T01:37:43;12.98;;;3.20;;
59127;SDS011;44912;52.754;5.994;2023-12-28T01:40:09;14.18;;;3.40;;
59127;SDS011;44912;52.754;5.994;2023-12-28T01:42:36;11.00;;;2.70;;
59127;SDS011;44912;52.754;5.994;2023-12-28T01:45:02;10.90;;;2.83;;
59127;SDS011;44912;52.754;5.994;2023-12-28T01:47:28;8.30;;;3.00;;
59127;SDS011;44912;52.754;5.994;2023-12-28T01:49:54;10.10;;;2.80;;
59127;SDS011;44912;52.754;5.994;2023-12-28T01:52:21;9.85;;;3.13;;
59127;SDS011;44912;52.754;5.994;2023-12-28T01:54:47;8.38;;;2.83;;
59127;SDS011;44912;52.754;5.994;2023-12-28T01:57:14;10.05;;;3.30;;
59127;SDS011;44912;52.754;5.994;2023-12-28T01:59:41;8.68;;;2.58;;
59127;SDS011;44912;52.754;5.994;2023-12-28T02:02:07;8.63;;;2.63;;
59127;SDS011;44912;52.754;5.994;2023-12-28T02:04:33;10.25;;;3.05;;
59127;SDS011;44912;52.754;5.994;2023-12-28T02:06:59;15.50;;;3.75;;
59127;SDS011;44912;52.754;5.994;2023-12-28T02:09:25;9.88;;;3.05;;
59127;SDS011;44912;52.754;5.994;2023-12-28T02:11:51;8.90;;;2.72;;
59127;SDS011;44912;52.754;5.994;2023-12-28T02:14:18;11.30;;;2.95;;
59127;SDS011;44912;52.754;5.994;2023-12-28T02:16:46;9.27;;;2.30;;
59127;SDS011;44912;52.754;5.994;2023-12-28T02:19:31;9.13;;;2.75;;
59127;SDS011;44912;52.754;5.994;2023-12-28T02:22:05;12.13;;;3.05;;
59127;SDS011;44912;52.754;5.994;2023-12-28T02:24:32;9.88;;;2.60;;
59127;SDS011;44912;52.754;5.994;2023-12-28T02:27:01;6.75;;;2.50;;
59127;SDS011;44912;52.754;5.994;2023-12-28T02:29:28;11.70;;;2.72;;
59127;SDS011;44912;52.754;5.994;2023-12-28T02:31:58;12.07;;;2.90;;
59127;SDS011;44912;52.754;5.994;2023-12-28T02:34:31;10.57;;;2.97;;
59127;SDS011;44912;52.754;5.994;2023-12-28T02:37:02;9.65;;;2.42;;
59127;SDS011;44912;52.754;5.994;2023-12-28T02:39:30;10.27;;;2.50;;
59127;SDS011;44912;52.754;5.994;2023-12-28T02:41:56;9.63;;;2.33;;
59127;SDS011;44912;52.754;5.994;2023-12-28T02:44:22;9.40;;;2.13;;
59127;SDS011;44912;52.754;5.994;2023-12-28T02:46:48;7.15;;;2.08;;
59127;SDS011;44912;52.754;5.994;2023-12-28T02:49:14;10.00;;;2.47;;
59127;SDS011;44912;52.754;5.994;2023-12-28T02:51:40;11.25;;;2.42;;
59127;SDS011;44912;52.754;5.994;2023-12-28T02:54:07;11.88;;;2.50;;
59127;SDS011;44912;52.754;5.994;2023-12-28T02:56:33;9.95;;;2.50;;
59127;SDS011;44912;52.754;5.994;2023-12-28T02:58:59;11.40;;;2.53;;
59127;SDS011;44912;52.754;5.994;2023-12-28T03:01:25;7.75;;;2.28;;
59127;SDS011;44912;52.754;5.994;2023-12-28T03:03:50;10.60;;;2.42;;
59127;SDS011;44912;52.754;5.994;2023-12-28T03:06:16;9.55;;;2.65;;
59127;SDS011;44912;52.754;5.994;2023-12-28T03:08:41;11.18;;;2.78;;
59127;SDS011;44912;52.754;5.994;2023-12-28T03:11:07;8.00;;;2.08;;
59127;SDS011;44912;52.754;5.994;2023-12-28T03:13:32;11.27;;;2.45;;
59127;SDS011;44912;52.754;5.994;2023-12-28T03:15:58;8.77;;;2.20;;
59127;SDS011;44912;52.754;5.994;2023-12-28T03:18:24;12.63;;;2.70;;
59127;SDS011;44912;52.754;5.994;2023-12-28T03:20:49;8.05;;;2.25;;
59127;SDS011;44912;52.754;5.994;2023-12-28T03:23:15;11.40;;;2.47;;
59127;SDS011;44912;52.754;5.994;2023-12-28T03:25:41;10.63;;;2.45;;
59127;SDS011;44912;52.754;5.994;2023-12-28T03:28:06;8.52;;;2.20;;
59127;SDS011;44912;52.754;5.994;2023-12-28T03:30:32;10.52;;;2.60;;
59127;SDS011;44912;52.754;5.994;2023-12-28T03:32:57;9.60;;;2.22;;
59127;SDS011;44912;52.754;5.994;2023-12-28T03:35:23;10.82;;;2.83;;
59127;SDS011;44912;52.754;5.994;2023-12-28T03:37:49;10.23;;;2.20;;
59127;SDS011;44912;52.754;5.994;2023-12-28T03:40:14;7.95;;;1.95;;
59127;SDS011;44912;52.754;5.994;2023-12-28T03:42:40;11.25;;;2.35;;
59127;SDS011;44912;52.754;5.994;2023-12-28T03:45:06;10.05;;;2.33;;
59127;SDS011;44912;52.754;5.994;2023-12-28T03:47:32;12.20;;;2.40;;
59127;SDS011;44912;52.754;5.994;2023-12-28T03:49:58;11.63;;;2.50;;
59127;SDS011;44912;52.754;5.994;2023-12-28T03:52:26;10.98;;;2.20;;
59127;SDS011;44912;52.754;5.994;2023-12-28T03:54:55;8.75;;;2.50;;
59127;SDS011;44912;52.754;5.994;2023-12-28T03:57:20;12.68;;;2.50;;
59127;SDS011;44912;52.754;5.994;2023-12-28T03:59:46;13.70;;;2.55;;
59127;SDS011;44912;52.754;5.994;2023-12-28T04:02:12;13.00;;;2.50;;
59127;SDS011;44912;52.754;5.994;2023-12-28T04:04:38;11.73;;;2.78;;
59127;SDS011;44912;52.754;5.994;2023-12-28T04:07:04;12.30;;;2.80;;
59127;SDS011;44912;52.754;5.994;2023-12-28T04:09:32;10.23;;;2.28;;
59127;SDS011;44912;52.754;5.994;2023-12-28T04:11:58;10.10;;;2.33;;
59127;SDS011;44912;52.754;5.994;2023-12-28T04:14:24;12.60;;;2.55;;
59127;SDS011;44912;52.754;5.994;2023-12-28T04:16:49;10.80;;;2.83;;
59127;SDS011;44912;52.754;5.994;2023-12-28T04:19:15;11.93;;;2.42;;
59127;SDS011;44912;52.754;5.994;2023-12-28T04:21:44;11.43;;;2.40;;
59127;SDS011;44912;52.754;5.994;2023-12-28T04:24:10;7.93;;;2.13;;
59127;SDS011;44912;52.754;5.994;2023-12-28T04:26:35;12.00;;;2.17;;
59127;SDS011;44912;52.754;5.994;2023-12-28T04:29:01;13.02;;;2.35;;
59127;SDS011;44912;52.754;5.994;2023-12-28T04:31:27;12.95;;;2.60;;
59127;SDS011;44912;52.754;5.994;2023-12-28T04:33:53;11.80;;;2.72;;
59127;SDS011;44912;52.754;5.994;2023-12-28T04:36:18;8.70;;;2.45;;
59127;SDS011;44912;52.754;5.994;2023-12-28T04:38:44;10.25;;;2.25;;
59127;SDS011;44912;52.754;5.994;2023-12-28T04:41:09;8.60;;;2.55;;
59127;SDS011;44912;52.754;5.994;2023-12-28T04:43:36;11.25;;;2.38;;
59127;SDS011;44912;52.754;5.994;2023-12-28T04:46:04;11.30;;;2.55;;
59127;SDS011;44912;52.754;5.994;2023-12-28T04:48:30;12.65;;;2.63;;
59127;SDS011;44912;52.754;5.994;2023-12-28T04:50:57;11.32;;;2.70;;
59127;SDS011;44912;52.754;5.994;2023-12-28T04:53:22;11.45;;;2.30;;
59127;SDS011;44912;52.754;5.994;2023-12-28T04:55:48;10.80;;;2.50;;
59127;SDS011;44912;52.754;5.994;2023-12-28T04:58:14;13.82;;;2.50;;
59127;SDS011;44912;52.754;5.994;2023-12-28T05:00:39;11.82;;;2.30;;
59127;SDS011;44912;52.754;5.994;2023-12-28T05:03:05;9.75;;;2.30;;
59127;SDS011;44912;52.754;5.994;2023-12-28T05:05:31;10.32;;;2.30;;
59127;SDS011;44912;52.754;5.994;2023-12-28T05:07:57;9.50;;;2.75;;
59127;SDS011;44912;52.754;5.994;2023-12-28T05:10:23;13.38;;;2.55;;
59127;SDS011;44912;52.754;5.994;2023-12-28T05:12:49;8.93;;;1.90;;
59127;SDS011;44912;52.754;5.994;2023-12-28T05:15:14;13.38;;;2.72;;
59127;SDS011;44912;52.754;5.994;2023-12-28T05:17:40;9.05;;;2.20;;
59127;SDS011;44912;52.754;5.994;2023-12-28T05:20:06;12.45;;;2.17;;
59127;SDS011;44912;52.754;5.994;2023-12-28T05:22:32;11.88;;;2.10;;
59127;SDS011;44912;52.754;5.994;2023-12-28T05:24:58;10.05;;;2.28;;
59127;SDS011;44912;52.754;5.994;2023-12-28T05:27:24;9.38;;;2.20;;
59127;SDS011;44912;52.754;5.994;2023-12-28T05:29:49;10.63;;;2.30;;
59127;SDS011;44912;52.754;5.994;2023-12-28T05:32:15;11.45;;;2.45;;
59127;SDS011;44912;52.754;5.994;2023-12-28T05:34:41;14.10;;;2.22;;
59127;SDS011;44912;52.754;5.994;2023-12-28T05:37:06;16.35;;;2.28;;
59127;SDS011;44912;52.754;5.994;2023-12-28T05:39:32;9.00;;;2.00;;
59127;SDS011;44912;52.754;5.994;2023-12-28T05:41:58;12.60;;;2.22;;
59127;SDS011;44912;52.754;5.994;2023-12-28T05:44:23;11.93;;;2.30;;
59127;SDS011;44912;52.754;5.994;2023-12-28T05:46:49;10.23;;;2.40;;
59127;SDS011;44912;52.754;5.994;2023-12-28T05:49:14;12.75;;;2.10;;
59127;SDS011;44912;52.754;5.994;2023-12-28T05:51:40;12.27;;;2.80;;
59127;SDS011;44912;52.754;5.994;2023-12-28T05:54:07;15.52;;;2.85;;
59127;SDS011;44912;52.754;5.994;2023-12-28T05:56:33;11.02;;;2.00;;
59127;SDS011;44912;52.754;5.994;2023-12-28T05:58:58;16.40;;;2.72;;
59127;SDS011;44912;52.754;5.994;2023-12-28T06:01:24;16.13;;;2.45;;
59127;SDS011;44912;52.754;5.994;2023-12-28T06:03:50;11.50;;;2.17;;
59127;SDS011;44912;52.754;5.994;2023-12-28T06:06:17;15.95;;;3.28;;
59127;SDS011;44912;52.754;5.994;2023-12-28T06:08:43;11.90;;;2.75;;
59127;SDS011;44912;52.754;5.994;2023-12-28T06:11:09;12.68;;;2.60;;
59127;SDS011;44912;52.754;5.994;2023-12-28T06:13:34;14.25;;;2.30;;
59127;SDS011;44912;52.754;5.994;2023-12-28T06:16:00;13.15;;;2.67;;
59127;SDS011;44912;52.754;5.994;2023-12-28T06:18:26;14.70;;;2.40;;
59127;SDS011;44912;52.754;5.994;2023-12-28T06:20:52;15.73;;;2.28;;
59127;SDS011;44912;52.754;5.994;2023-12-28T06:23:17;12.73;;;2.40;;
59127;SDS011;44912;52.754;5.994;2023-12-28T06:25:44;13.48;;;2.83;;
59127;SDS011;44912;52.754;5.994;2023-12-28T06:28:09;13.13;;;2.50;;
59127;SDS011;44912;52.754;5.994;2023-12-28T06:30:35;12.80;;;2.42;;
59127;SDS011;44912;52.754;5.994;2023-12-28T06:33:01;15.90;;;2.50;;
59127;SDS011;44912;52.754;5.994;2023-12-28T06:35:26;15.15;;;2.83;;
59127;SDS011;44912;52.754;5.994;2023-12-28T06:37:52;11.93;;;2.80;;
59127;SDS011;44912;52.754;5.994;2023-12-28T06:40:18;13.93;;;2.47;;
59127;SDS011;44912;52.754;5.994;2023-12-28T06:42:43;16.42;;;3.05;;
59127;SDS011;44912;52.754;5.994;2023-12-28T06:45:09;16.77;;;3.03;;
59127;SDS011;44912;52.754;5.994;2023-12-28T06:47:35;14.93;;;2.55;;
59127;SDS011;44912;52.754;5.994;2023-12-28T06:50:01;14.13;;;2.28;;
59127;SDS011;44912;52.754;5.994;2023-12-28T06:52:26;14.90;;;2.95;;
59127;SDS011;44912;52.754;5.994;2023-12-28T06:54:52;16.15;;;2.60;;
59127;SDS011;44912;52.754;5.994;2023-12-28T06:57:18;16.10;;;2.40;;
59127;SDS011;44912;52.754;5.994;2023-12-28T06:59:44;14.40;;;2.08;;
59127;SDS011;44912;52.754;5.994;2023-12-28T07:02:10;17.35;;;2.38;;
59127;SDS011;44912;52.754;5.994;2023-12-28T07:04:35;11.55;;;2.40;;
59127;SDS011;44912;52.754;5.994;2023-12-28T07:07:01;14.50;;;3.25;;
59127;SDS011;44912;52.754;5.994;2023-12-28T07:09:27;20.13;;;2.67;;
59127;SDS011;44912;52.754;5.994;2023-12-28T07:11:52;18.50;;;2.50;;
59127;SDS011;44912;52.754;5.994;2023-12-28T07:14:18;14.27;;;2.97;;
59127;SDS011;44912;52.754;5.994;2023-12-28T07:16:43;15.10;;;2.30;;
59127;SDS011;44912;52.754;5.994;2023-12-28T07:19:09;16.70;;;3.20;;
59127;SDS011;44912;52.754;5.994;2023-12-28T07:21:34;20.13;;;3.47;;
59127;SDS011;44912;52.754;5.994;2023-12-28T07:24:00;14.75;;;3.22;;
59127;SDS011;44912;52.754;5.994;2023-12-28T07:26:25;20.77;;;2.75;;
59127;SDS011;44912;52.754;5.994;2023-12-28T07:28:51;15.98;;;2.92;;
59127;SDS011;44912;52.754;5.994;2023-12-28T07:31:26;14.27;;;3.00;;
59127;SDS011;44912;52.754;5.994;2023-12-28T07:33:53;18.35;;;3.58;;
59127;SDS011;44912;52.754;5.994;2023-12-28T07:36:19;13.80;;;2.40;;
59127;SDS011;44912;52.754;5.994;2023-12-28T07:38:45;15.57;;;2.45;;
59127;SDS011;44912;52.754;5.994;2023-12-28T07:41:11;18.75;;;3.22;;
59127;SDS011;44912;52.754;5.994;2023-12-28T07:43:36;14.90;;;2.78;;
59127;SDS011;44912;52.754;5.994;2023-12-28T07:46:02;15.75;;;3.00;;
59127;SDS011;44912;52.754;5.994;2023-12-28T07:48:28;15.80;;;2.85;;
59127;SDS011;44912;52.754;5.994;2023-12-28T07:50:55;19.25;;;3.42;;
59127;SDS011;44912;52.754;5.994;2023-12-28T07:53:22;16.20;;;2.55;;
59127;SDS011;44912;52.754;5.994;2023-12-28T07:55:47;19.63;;;3.08;;
59127;SDS011;44912;52.754;5.994;2023-12-28T07:58:13;15.98;;;3.30;;
59127;SDS011;44912;52.754;5.994;2023-12-28T08:00:39;18.30;;;3.50;;
59127;SDS011;44912;52.754;5.994;2023-12-28T08:03:05;15.15;;;3.10;;
59127;SDS011;44912;52.754;5.994;2023-12-28T08:05:30;18.13;;;3.08;;
59127;SDS011;44912;52.754;5.994;2023-12-28T08:07:56;15.90;;;3.08;;
59127;SDS011;44912;52.754;5.994;2023-12-28T08:10:22;22.23;;;3.30;;
59127;SDS011;44912;52.754;5.994;2023-12-28T08:12:47;17.08;;;3.20;;
59127;SDS011;44912;52.754;5.994;2023-12-28T08:15:13;19.95;;;2.90;;
59127;SDS011;44912;52.754;5.994;2023-12-28T08:17:38;16.40;;;2.60;;
59127;SDS011;44912;52.754;5.994;2023-12-28T08:20:05;19.65;;;2.88;;
59127;SDS011;44912;52.754;5.994;2023-12-28T08:22:31;18.48;;;3.75;;
59127;SDS011;44912;52.754;5.994;2023-12-28T08:24:57;17.08;;;3.45;;
59127;SDS011;44912;52.754;5.994;2023-12-28T08:27:23;18.42;;;3.13;;
59127;SDS011;44912;52.754;5.994;2023-12-28T08:29:48;19.48;;;3.03;;
59127;SDS011;44912;52.754;5.994;2023-12-28T08:32:14;19.60;;;3.05;;
59127;SDS011;44912;52.754;5.994;2023-12-28T08:34:40;19.30;;;3.38;;
59127;SDS011;44912;52.754;5.994;2023-12-28T08:37:06;22.50;;;3.42;;
59127;SDS011;44912;52.754;5.994;2023-12-28T08:39:31;23.45;;;3.90;;
59127;SDS011;44912;52.754;5.994;2023-12-28T08:41:57;19.55;;;3.05;;
59127;SDS011;44912;52.754;5.994;2023-12-28T08:44:23;16.13;;;2.90;;
59127;SDS011;44912;52.754;5.994;2023-12-28T08:46:49;18.02;;;2.92;;
59127;SDS011;44912;52.754;5.994;2023-12-28T08:49:14;21.80;;;3.35;;
59127;SDS011;44912;52.754;5.994;2023-12-28T08:51:41;17.20;;;2.78;;
59127;SDS011;44912;52.754;5.994;2023-12-28T08:54:07;18.83;;;3.38;;
59127;SDS011;44912;52.754;5.994;2023-12-28T08:56:34;21.10;;;3.97;;
59127;SDS011;44912;52.754;5.994;2023-12-28T08:59:00;16.52;;;3.42;;
59127;SDS011;44912;52.754;5.994;2023-12-28T09:01:26;28.58;;;3.80;;
59127;SDS011;44912;52.754;5.994;2023-12-28T09:03:53;21.95;;;3.88;;
59127;SDS011;44912;52.754;5.994;2023-12-28T09:06:22;15.00;;;2.58;;
59127;SDS011;44912;52.754;5.994;2023-12-28T09:08:48;16.95;;;3.00;;
59127;SDS011;44912;52.754;5.994;2023-12-28T09:11:15;16.33;;;3.00;;
59127;SDS011;44912;52.754;5.994;2023-12-28T09:13:41;18.40;;;3.88;;
59127;SDS011;44912;52.754;5.994;2023-12-28T09:16:07;18.60;;;2.70;;
59127;SDS011;44912;52.754;5.994;2023-12-28T09:18:35;19.17;;;3.00;;
59127;SDS011;44912;52.754;5.994;2023-12-28T09:21:05;18.63;;;2.97;;
59127;SDS011;44912;52.754;5.994;2023-12-28T09:23:32;17.08;;;3.30;;
59127;SDS011;44912;52.754;5.994;2023-12-28T09:26:03;18.45;;;3.00;;
59127;SDS011;44912;52.754;5.994;2023-12-28T09:28:33;15.48;;;2.85;;
59127;SDS011;44912;52.754;5.994;2023-12-28T09:31:02;17.42;;;2.83;;
59127;SDS011;44912;52.754;5.994;2023-12-28T09:33:29;15.70;;;2.80;;
59127;SDS011;44912;52.754;5.994;2023-12-28T09:35:54;18.95;;;3.00;;
59127;SDS011;44912;52.754;5.994;2023-12-28T09:38:20;21.90;;;3.30;;
59127;SDS011;44912;52.754;5.994;2023-12-28T09:40:47;18.17;;;2.72;;
59127;SDS011;44912;52.754;5.994;2023-12-28T09:43:19;23.08;;;3.47;;
59127;SDS011;44912;52.754;5.994;2023-12-28T09:45:50;21.27;;;4.28;;
59127;SDS011;44912;52.754;5.994;2023-12-28T09:48:17;14.85;;;2.88;;
59127;SDS011;44912;52.754;5.994;2023-12-28T09:50:53;21.02;;;2.83;;
59127;SDS011;44912;52.754;5.994;2023-12-28T09:53:22;19.77;;;3.78;;
59127;SDS011;44912;52.754;5.994;2023-12-28T09:55:48;20.60;;;3.50;;
59127;SDS011;44912;52.754;5.994;2023-12-28T09:58:16;15.43;;;2.97;;
59127;SDS011;44912;52.754;5.994;2023-12-28T10:00:44;20.05;;;3.55;;
59127;SDS011;44912;52.754;5.994;2023-12-28T10:03:11;19.67;;;3.60;;
59127;SDS011;44912;52.754;5.994;2023-12-28T10:05:39;21.17;;;3.47;;
59127;SDS011;44912;52.754;5.994;2023-12-28T10:08:06;18.40;;;3.15;;
59127;SDS011;44912;52.754;5.994;2023-12-28T10:10:31;14.85;;;2.78;;
59127;SDS011;44912;52.754;5.994;2023-12-28T10:12:57;21.15;;;3.28;;
59127;SDS011;44912;52.754;5.994;2023-12-28T10:15:23;16.08;;;2.95;;
59127;SDS011;44912;52.754;5.994;2023-12-28T10:17:51;15.48;;;3.00;;
59127;SDS011;44912;52.754;5.994;2023-12-28T10:20:17;18.70;;;3.08;;
59127;SDS011;44912;52.754;5.994;2023-12-28T10:22:43;21.15;;;2.97;;
59127;SDS011;44912;52.754;5.994;2023-12-28T10:25:10;19.92;;;3.20;;
59127;SDS011;44912;52.754;5.994;2023-12-28T10:27:39;21.98;;;3.63;;
59127;SDS011;44912;52.754;5.994;2023-12-28T10:30:08;19.75;;;2.90;;
59127;SDS011;44912;52.754;5.994;2023-12-28T10:32:35;17.73;;;3.72;;
59127;SDS011;44912;52.754;5.994;2023-12-28T10:35:01;16.73;;;3.25;;
59127;SDS011;44912;52.754;5.994;2023-12-28T10:37:27;17.35;;;2.78;;
59127;SDS011;44912;52.754;5.994;2023-12-28T10:39:56;18.98;;;3.38;;
59127;SDS011;44912;52.754;5.994;2023-12-28T10:44:53;19.73;;;3.08;;
59127;SDS011;44912;52.754;5.994;2023-12-28T10:47:25;17.98;;;3.28;;
59127;SDS011;44912;52.754;5.994;2023-12-28T10:49:52;18.13;;;2.60;;
59127;SDS011;44912;52.754;5.994;2023-12-28T10:52:20;18.67;;;2.78;;
59127;SDS011;44912;52.754;5.994;2023-12-28T10:54:57;18.20;;;3.17;;
59127;SDS011;44912;52.754;5.994;2023-12-28T10:57:33;20.73;;;3.25;;
59127;SDS011;44912;52.754;5.994;2023-12-28T11:00:09;24.23;;;3.22;;
59127;SDS011;44912;52.754;5.994;2023-12-28T11:02:38;17.95;;;2.90;;
59127;SDS011;44912;52.754;5.994;2023-12-28T11:05:09;15.55;;;2.80;;
59127;SDS011;44912;52.754;5.994;2023-12-28T11:07:37;18.40;;;3.20;;
59127;SDS011;44912;52.754;5.994;2023-12-28T11:10:05;15.35;;;2.80;;
59127;SDS011;44912;52.754;5.994;2023-12-28T11:12:32;18.75;;;3.42;;
59127;SDS011;44912;52.754;5.994;2023-12-28T11:14:58;18.52;;;2.95;;
59127;SDS011;44912;52.754;5.994;2023-12-28T11:17:24;18.88;;;3.20;;
59127;SDS011;44912;52.754;5.994;2023-12-28T11:19:51;20.17;;;2.83;;
59127;SDS011;44912;52.754;5.994;2023-12-28T11:22:18;15.30;;;3.10;;
59127;SDS011;44912;52.754;5.994;2023-12-28T11:24:45;18.98;;;3.42;;
59127;SDS011;44912;52.754;5.994;2023-12-28T11:27:11;22.55;;;3.25;;
59127;SDS011;44912;52.754;5.994;2023-12-28T11:29:38;21.80;;;3.17;;
59127;SDS011;44912;52.754;5.994;2023-12-28T11:32:04;16.48;;;3.45;;
59127;SDS011;44912;52.754;5.994;2023-12-28T11:34:30;18.15;;;3.63;;
59127;SDS011;44912;52.754;5.994;2023-12-28T11:36:59;18.40;;;2.92;;
59127;SDS011;44912;52.754;5.994;2023-12-28T11:39:29;20.48;;;3.28;;
59127;SDS011;44912;52.754;5.994;2023-12-28T11:41:59;19.48;;;3.63;;
59127;SDS011;44912;52.754;5.994;2023-12-28T11:44:28;17.42;;;2.72;;
59127;SDS011;44912;52.754;5.994;2023-12-28T11:46:54;18.50;;;3.42;;
59127;SDS011;44912;52.754;5.994;2023-12-28T11:49:24;18.50;;;3.83;;
59127;SDS011;44912;52.754;5.994;2023-12-28T11:51:56;22.98;;;3.85;;
59127;SDS011;44912;52.754;5.994;2023-12-28T11:54:23;18.75;;;2.92;;
59127;SDS011;44912;52.754;5.994;2023-12-28T11:56:50;15.55;;;2.58;;
59127;SDS011;44912;52.754;5.994;2023-12-28T11:59:16;18.45;;;3.20;;
59127;SDS011;44912;52.754;5.994;2023-12-28T12:01:41;19.00;;;3.38;;
59127;SDS011;44912;52.754;5.994;2023-12-28T12:04:07;19.13;;;3.40;;
59127;SDS011;44912;52.754;5.994;2023-12-28T12:06:33;25.05;;;4.45;;
59127;SDS011;44912;52.754;5.994;2023-12-28T12:08:58;23.48;;;4.22;;
59127;SDS011;44912;52.754;5.994;2023-12-28T12:11:24;20.17;;;3.33;;
59127;SDS011;44912;52.754;5.994;2023-12-28T12:13:50;19.65;;;3.45;;
59127;SDS011;44912;52.754;5.994;2023-12-28T12:16:17;17.85;;;2.90;;
59127;SDS011;44912;52.754;5.994;2023-12-28T12:18:43;20.70;;;3.10;;
59127;SDS011;44912;52.754;5.994;2023-12-28T12:21:09;18.35;;;2.83;;
59127;SDS011;44912;52.754;5.994;2023-12-28T12:23:35;20.83;;;3.20;;
59127;SDS011;44912;52.754;5.994;2023-12-28T12:26:00;16.55;;;3.10;;
59127;SDS011;44912;52.754;5.994;2023-12-28T12:28:29;20.95;;;2.70;;
59127;SDS011;44912;52.754;5.994;2023-12-28T12:30:55;17.35;;;3.10;;
59127;SDS011;44912;52.754;5.994;2023-12-28T12:33:22;17.48;;;3.10;;
59127;SDS011;44912;52.754;5.994;2023-12-28T12:35:48;22.30;;;3.60;;
59127;SDS011;44912;52.754;5.994;2023-12-28T12:38:14;19.58;;;3.65;;
59127;SDS011;44912;52.754;5.994;2023-12-28T12:40:41;19.27;;;3.25;;
59127;SDS011;44912;52.754;5.994;2023-12-28T12:43:07;18.70;;;3.22;;
59127;SDS011;44912;52.754;5.994;2023-12-28T12:45:34;15.93;;;3.15;;
59127;SDS011;44912;52.754;5.994;2023-12-28T12:48:01;22.02;;;3.58;;
59127;SDS011;44912;52.754;5.994;2023-12-28T12:50:28;22.10;;;4.45;;
59127;SDS011;44912;52.754;5.994;2023-12-28T12:52:54;20.92;;;4.55;;
59127;SDS011;44912;52.754;5.994;2023-12-28T12:55:19;23.05;;;3.28;;
59127;SDS011;44912;52.754;5.994;2023-12-28T12:57:45;22.10;;;3.83;;
59127;SDS011;44912;52.754;5.994;2023-12-28T13:00:11;23.60;;;3.50;;
59127;SDS011;44912;52.754;5.994;2023-12-28T13:02:37;17.77;;;2.90;;
59127;SDS011;44912;52.754;5.994;2023-12-28T13:05:04;18.63;;;3.45;;
59127;SDS011;44912;52.754;5.994;2023-12-28T13:07:30;22.08;;;3.55;;
59127;SDS011;44912;52.754;5.994;2023-12-28T13:09:56;22.23;;;3.42;;
59127;SDS011;44912;52.754;5.994;2023-12-28T13:12:22;20.48;;;3.60;;
59127;SDS011;44912;52.754;5.994;2023-12-28T13:14:49;18.48;;;3.53;;
59127;SDS011;44912;52.754;5.994;2023-12-28T13:17:14;20.23;;;3.55;;
59127;SDS011;44912;52.754;5.994;2023-12-28T13:19:41;19.00;;;3.42;;
59127;SDS011;44912;52.754;5.994;2023-12-28T13:22:07;19.15;;;3.30;;
59127;SDS011;44912;52.754;5.994;2023-12-28T13:24:33;20.77;;;3.67;;
59127;SDS011;44912;52.754;5.994;2023-12-28T13:26:58;22.30;;;3.50;;
59127;SDS011;44912;52.754;5.994;2023-12-28T13:29:24;19.73;;;3.70;;
59127;SDS011;44912;52.754;5.994;2023-12-28T13:31:50;18.63;;;3.22;;
59127;SDS011;44912;52.754;5.994;2023-12-28T13:34:16;19.73;;;3.40;;
59127;SDS011;44912;52.754;5.994;2023-12-28T13:36:44;17.45;;;3.42;;
59127;SDS011;44912;52.754;5.994;2023-12-28T13:39:10;19.70;;;3.72;;
59127;SDS011;44912;52.754;5.994;2023-12-28T13:41:39;16.45;;;3.33;;
59127;SDS011;44912;52.754;5.994;2023-12-28T13:44:05;22.48;;;3.42;;
59127;SDS011;44912;52.754;5.994;2023-12-28T13:46:35;20.10;;;3.10;;
59127;SDS011;44912;52.754;5.994;2023-12-28T13:49:01;21.95;;;3.20;;
59127;SDS011;44912;52.754;5.994;2023-12-28T13:51:29;21.17;;;3.20;;
59127;SDS011;44912;52.754;5.994;2023-12-28T13:53:55;17.45;;;3.38;;
59127;SDS011;44912;52.754;5.994;2023-12-28T13:56:21;16.75;;;2.83;;
59127;SDS011;44912;52.754;5.994;2023-12-28T13:58:46;25.75;;;3.95;;
59127;SDS011;44912;52.754;5.994;2023-12-28T14:01:12;20.65;;;3.83;;
59127;SDS011;44912;52.754;5.994;2023-12-28T14:03:38;19.42;;;3.13;;
59127;SDS011;44912;52.754;5.994;2023-12-28T14:06:04;18.13;;;3.08;;
59127;SDS011;44912;52.754;5.994;2023-12-28T14:08:30;17.08;;;3.08;;
59127;SDS011;44912;52.754;5.994;2023-12-28T14:10:55;17.75;;;2.92;;
59127;SDS011;44912;52.754;5.994;2023-12-28T14:13:21;22.25;;;3.30;;
59127;SDS011;44912;52.754;5.994;2023-12-28T14:15:47;24.85;;;3.78;;
59127;SDS011;44912;52.754;5.994;2023-12-28T14:18:13;21.73;;;3.22;;
59127;SDS011;44912;52.754;5.994;2023-12-28T14:20:39;16.27;;;3.08;;
59127;SDS011;44912;52.754;5.994;2023-12-28T14:23:04;19.02;;;3.15;;
59127;SDS011;44912;52.754;5.994;2023-12-28T14:25:30;20.48;;;3.67;;
59127;SDS011;44912;52.754;5.994;2023-12-28T14:27:56;20.95;;;3.55;;
59127;SDS011;44912;52.754;5.994;2023-12-28T14:30:22;15.10;;;2.78;;
59127;SDS011;44912;52.754;5.994;2023-12-28T14:32:48;18.40;;;3.38;;